Time;durP1;ratioP1;P1;durP2;ratioP2;P2;SDS_P1;SDS_P2;PMS_P1;PMS_P2;Temp;Humidity;BMP_temperature;BMP_pressure;BME280_temperature;BME280_humidity;BME280_pressure;Samples;Min_cycle;Max_cycle;Signal;HPM_P1;HPM_P2
2022/10/04 00:02:22;;;;;;;0.52;0.52;;;;;;;;;;7403804;19;20035;-83
2022/10/04 00:04:56;;;;;;;0.73;0.50;;;;;;;;;;7402664;19;20114;-84
2022/10/04 00:07:36;;;;;;;0.70;0.52;;;;;;;;;;7399094;19;20032;-83
2022/10/04 00:10:23;;;;;;;0.80;0.60;;;;;;;;;;7403131;19;20022;-83
2022/10/04 00:12:57;;;;;;;0.55;0.55;;;;;;;;;;7405026;19;20010;-84
2022/10/04 00:15:27;;;;;;;0.65;0.60;;;;;;;;;;7401860;19;20017;-84
2022/10/04 00:20:49;;;;;;;6.22;2.92;;;;;;;;;;7392539;19;19995;-83
2022/10/04 00:23:24;;;;;;;3.25;2.20;;;;;;;;;;7400557;19;20015;-83
2022/10/04 00:25:55;;;;;;;4.40;2.00;;;;;;;;;;7400128;19;19995;-82
2022/10/04 00:28:24;;;;;;;6.95;1.70;;;;;;;;;;7409104;19;20284;-83
2022/10/04 00:31:14;;;;;;;3.75;1.77;;;;;;;;;;7411343;19;19995;-83
2022/10/04 00:33:55;;;;;;;5.80;1.70;;;;;;;;;;7405418;19;20212;-83
2022/10/04 00:36:42;;;;;;;3.55;1.50;;;;;;;;;;7401044;19;19991;-83
2022/10/04 00:39:07;;;;;;;1.27;0.85;;;;;;;;;;7402858;19;20416;-83
2022/10/04 00:41:48;;;;;;;1.77;0.90;;;;;;;;;;7400793;19;19998;-83
2022/10/04 00:44:55;;;;;;;1.63;0.75;;;;;;;;;;7401536;19;19998;-83
2022/10/04 00:47:52;;;;;;;0.70;0.63;;;;;;;;;;7401175;19;20015;-84
2022/10/04 00:50:36;;;;;;;0.68;0.60;;;;;;;;;;7402797;19;20070;-83
2022/10/04 00:53:10;;;;;;;0.80;0.80;;;;;;;;;;7400388;19;20014;-82
2022/10/04 00:55:59;;;;;;;1.38;0.65;;;;;;;;;;7398293;19;20002;-83
2022/10/04 00:59:05;;;;;;;1.35;0.80;;;;;;;;;;7399196;19;20153;-83
2022/10/04 01:01:34;;;;;;;2.55;1.00;;;;;;;;;;7396541;19;20018;-84
2022/10/04 01:04:01;;;;;;;1.10;0.75;;;;;;;;;;7401507;19;20518;-83
2022/10/04 01:06:28;;;;;;;2.15;1.25;;;;;;;;;;7400333;19;20482;-83
2022/10/04 01:08:56;;;;;;;1.63;0.93;;;;;;;;;;7401446;19;20011;-83
2022/10/04 01:11:27;;;;;;;1.27;0.70;;;;;;;;;;7399547;19;20066;-83
2022/10/04 01:14:00;;;;;;;1.20;1.00;;;;;;;;;;7399490;19;20032;-83
2022/10/04 01:16:32;;;;;;;0.75;0.75;;;;;;;;;;7400104;19;20017;-83
2022/10/04 01:19:26;;;;;;;0.65;0.65;;;;;;;;;;7400365;19;20070;-83
2022/10/04 01:22:08;;;;;;;0.52;0.50;;;;;;;;;;7403178;19;21007;-83
2022/10/04 01:24:37;;;;;;;0.95;0.85;;;;;;;;;;7399445;19;20024;-83
2022/10/04 01:27:03;;;;;;;2.05;0.77;;;;;;;;;;7400726;19;20013;-83
2022/10/04 01:29:30;;;;;;;2.05;0.68;;;;;;;;;;7398064;19;20006;-83
2022/10/04 01:32:00;;;;;;;1.33;1.00;;;;;;;;;;7403017;19;20010;-83
2022/10/04 01:34:27;;;;;;;0.90;0.60;;;;;;;;;;7398482;19;20007;-83
2022/10/04 01:36:56;;;;;;;0.93;0.80;;;;;;;;;;7396101;19;20011;-84
2022/10/04 01:39:23;;;;;;;0.50;0.50;;;;;;;;;;7396504;19;20010;-83
2022/10/04 01:42:18;;;;;;;1.73;0.90;;;;;;;;;;7400616;19;20003;-84
2022/10/04 01:44:54;;;;;;;1.45;0.82;;;;;;;;;;7399614;19;20031;-83
2022/10/04 01:47:36;;;;;;;1.55;0.75;;;;;;;;;;7400170;19;21599;-83
2022/10/04 01:50:06;;;;;;;1.58;0.90;;;;;;;;;;7397666;19;20365;-84
2022/10/04 01:52:38;;;;;;;1.00;0.65;;;;;;;;;;7400482;19;20006;-83
2022/10/04 01:55:33;;;;;;;0.65;0.60;;;;;;;;;;7398956;19;20356;-83
2022/10/04 01:58:13;;;;;;;2.30;0.85;;;;;;;;;;7397118;19;20006;-83
2022/10/04 02:00:46;;;;;;;1.40;1.00;;;;;;;;;;7395769;19;20039;-83
2022/10/04 02:03:21;;;;;;;2.03;1.02;;;;;;;;;;7397367;19;20035;-83
2022/10/04 02:05:51;;;;;;;1.45;0.90;;;;;;;;;;7397478;19;20010;-83
2022/10/04 02:08:24;;;;;;;1.02;0.90;;;;;;;;;;7398985;19;20084;-83
2022/10/04 02:10:52;;;;;;;1.80;0.88;;;;;;;;;;7402011;19;20017;-83
2022/10/04 02:13:20;;;;;;;0.82;0.80;;;;;;;;;;7400159;19;20007;-83
2022/10/04 02:15:46;;;;;;;0.90;0.70;;;;;;;;;;7398749;19;20017;-83
2022/10/04 02:18:19;;;;;;;3.42;0.80;;;;;;;;;;7400046;19;20018;-83
2022/10/04 02:20:47;;;;;;;0.50;0.50;;;;;;;;;;7399369;19;20488;-83
2022/10/04 02:23:16;;;;;;;0.70;0.70;;;;;;;;;;7399014;19;20018;-83
2022/10/04 02:25:41;;;;;;;1.15;1.05;;;;;;;;;;7401865;19;20022;-83
2022/10/04 02:28:12;;;;;;;1.10;0.73;;;;;;;;;;7398998;19;20416;-83
2022/10/04 02:30:40;;;;;;;0.68;0.60;;;;;;;;;;7399258;19;20070;-84
2022/10/04 02:33:41;;;;;;;1.27;0.90;;;;;;;;;;7401894;19;20027;-84
2022/10/04 02:36:08;;;;;;;1.00;0.70;;;;;;;;;;7400524;19;20062;-84
2022/10/04 02:38:40;;;;;;;0.93;0.80;;;;;;;;;;7397565;19;20014;-84
2022/10/04 02:41:23;;;;;;;1.02;0.80;;;;;;;;;;7398585;19;20006;-83
2022/10/04 02:43:57;;;;;;;1.77;0.75;;;;;;;;;;7397261;19;20030;-83
2022/10/04 02:46:44;;;;;;;0.90;0.60;;;;;;;;;;7393215;19;20509;-84
2022/10/04 02:49:25;;;;;;;0.82;0.52;;;;;;;;;;7397751;19;20014;-82
2022/10/04 02:56:29;;;;;;;;;;;;;;;;;;;;;
2022/10/04 02:59:00;;;;;;;0.60;0.60;;;;;;;;;;7396673;19;20026;-83
2022/10/04 03:01:38;;;;;;;0.68;0.60;;;;;;;;;;7395804;19;20471;-83
2022/10/04 03:04:04;;;;;;;0.50;0.50;;;;;;;;;;7395987;19;20006;-83
2022/10/04 03:06:31;;;;;;;3.90;0.70;;;;;;;;;;7397315;19;20006;-84
2022/10/04 03:09:04;;;;;;;0.75;0.60;;;;;;;;;;7394117;19;19998;-83
2022/10/04 03:11:34;;;;;;;0.60;0.60;;;;;;;;;;7394770;19;20017;-83
2022/10/04 03:14:03;;;;;;;0.75;0.75;;;;;;;;;;7395238;19;20078;-83
2022/10/04 03:16:38;;;;;;;0.60;0.52;;;;;;;;;;7398295;19;20019;-83
2022/10/04 03:19:05;;;;;;;0.50;0.50;;;;;;;;;;7396440;19;20392;-83
2022/10/04 03:21:32;;;;;;;0.60;0.60;;;;;;;;;;7394434;19;20125;-83
2022/10/04 03:23:59;;;;;;;1.75;1.00;;;;;;;;;;7396183;19;20019;-83
2022/10/04 03:26:46;;;;;;;0.85;0.68;;;;;;;;;;7398545;19;19995;-83
2022/10/04 03:29:14;;;;;;;1.05;0.85;;;;;;;;;;7400787;19;20003;-83
2022/10/04 03:31:43;;;;;;;0.88;0.70;;;;;;;;;;7403919;19;20006;-83
2022/10/04 03:34:20;;;;;;;1.02;0.60;;;;;;;;;;7405952;19;20030;-83
2022/10/04 03:36:48;;;;;;;5.60;1.02;;;;;;;;;;7404890;19;20014;-83
2022/10/04 03:39:25;;;;;;;0.73;0.70;;;;;;;;;;7402950;19;20015;-83
2022/10/04 03:41:52;;;;;;;0.85;0.77;;;;;;;;;;7405850;19;20093;-84
2022/10/04 03:44:59;;;;;;;1.27;0.77;;;;;;;;;;7402811;19;20006;-83
2022/10/04 03:47:29;;;;;;;1.63;1.17;;;;;;;;;;7400020;19;20003;-83
2022/10/04 03:49:59;;;;;;;3.22;1.10;;;;;;;;;;7397226;19;20022;-83
2022/10/04 03:52:30;;;;;;;2.42;1.27;;;;;;;;;;7397932;19;20345;-83
2022/10/04 03:55:46;;;;;;;1.77;0.90;;;;;;;;;;7402501;19;20531;-82
2022/10/04 04:32:40;;;;;;;1.02;0.90;;;;;;;;;;7396065;19;20046;-82
2022/10/04 05:01:01;;;;;;;3.13;2.20;;;;;;;;;;7374116;19;20010;-84
2022/10/04 05:54:18;;;;;;;5.93;2.08;;;;;;;;;;7394321;19;20388;-85
2022/10/04 06:01:03;;;;;;;3.45;1.33;;;;;;;;;;7397816;19;20023;-84
2022/10/04 08:52:08;;;;;;;2.88;1.88;;;;;;;;;;7393934;19;19994;-83
2022/10/04 09:21:17;;;;;;;;;;;;;;;;;;;;;
2022/10/04 09:24:22;;;;;;;4.82;2.03;;;;;;;;;;7402477;19;20010;-83
2022/10/04 09:27:24;;;;;;;;;;;;;;;;;;;;;
2022/10/04 09:33:46;;;;;;;3.35;1.63;;;;;;;;;;7401173;19;20004;-81
2022/10/04 09:36:39;;;;;;;2.90;2.05;;;;;;;;;;7399676;19;20006;-83
2022/10/04 09:39:59;;;;;;;4.10;1.70;;;;;;;;;;7400037;19;20823;-81
2022/10/04 09:42:43;;;;;;;3.05;1.30;;;;;;;;;;7398955;19;20038;-84
2022/10/04 09:45:44;;;;;;;4.13;1.85;;;;;;;;;;7400944;19;20074;-84
2022/10/04 09:48:28;;;;;;;3.30;1.60;;;;;;;;;;7395023;19;20130;-82
2022/10/04 09:51:23;;;;;;;2.25;1.60;;;;;;;;;;7399664;19;20010;-84
2022/10/04 09:54:14;;;;;;;1.73;1.33;;;;;;;;;;7398615;19;20011;-83
2022/10/04 09:57:07;;;;;;;4.43;1.38;;;;;;;;;;7399632;19;20014;-82
2022/10/04 09:59:46;;;;;;;4.50;2.00;;;;;;;;;;7397892;19;20037;-81
2022/10/04 10:02:18;;;;;;;5.65;1.70;;;;;;;;;;7397082;19;20022;-81
2022/10/04 10:04:58;;;;;;;2.28;1.55;;;;;;;;;;7398173;19;20034;-81
2022/10/04 10:07:45;;;;;;;5.22;1.83;;;;;;;;;;7398194;19;20366;-82
2022/10/04 10:13:38;;;;;;;4.00;1.98;;;;;;;;;;7401594;19;20019;-83
2022/10/04 10:16:39;;;;;;;3.88;1.90;;;;;;;;;;7397728;19;20014;-82
2022/10/04 10:23:14;;;;;;;3.20;1.80;;;;;;;;;;7396172;19;19995;-81
2022/10/04 10:26:01;;;;;;;4.40;1.70;;;;;;;;;;7400171;19;20007;-81
2022/10/04 10:29:04;;;;;;;5.45;2.00;;;;;;;;;;7408053;19;20026;-82
2022/10/04 10:31:50;;;;;;;5.60;1.90;;;;;;;;;;7415028;19;20031;-83
2022/10/04 10:34:30;;;;;;;3.92;1.88;;;;;;;;;;7399298;19;20014;-85
2022/10/04 10:37:29;;;;;;;3.53;1.65;;;;;;;;;;7407129;19;20100;-82
2022/10/04 10:40:00;;;;;;;4.80;1.48;;;;;;;;;;7402840;19;20034;-84
2022/10/04 10:42:49;;;;;;;4.90;1.40;;;;;;;;;;7409296;19;19999;-83
2022/10/04 10:45:44;;;;;;;4.88;1.60;;;;;;;;;;7406386;19;20089;-83
2022/10/04 10:48:46;;;;;;;4.20;1.60;;;;;;;;;;7403416;19;20479;-82
2022/10/04 10:51:22;;;;;;;4.30;1.65;;;;;;;;;;7405374;19;20007;-84
2022/10/04 10:54:29;;;;;;;;;;;;;;;;;;;;;
2022/10/04 11:19:15;;;;;;;2.78;1.63;;;;;;;;;;7390338;19;20199;-85
2022/10/04 12:53:34;;;;;;;3.25;1.45;;;;;;;;;;7402775;19;20002;-83
